Time;durP1;ratioP1;P1;durP2;ratioP2;P2;SDS_P1;SDS_P2;PMS_P1;PMS_P2;Temp;Humidity;BMP_temperature;BMP_pressure;BME280_temperature;BME280_humidity;BME280_pressure;Samples;Min_cycle;Max_cycle;Signal;HPM_P1;HPM_P2
2023/07/23 00:01:51;;;;;;;11.27;6.82;;;;;;;;;;5013025;28;20030;-73
2023/07/23 00:04:17;;;;;;;10.20;7.25;;;;;;;;;;5012382;28;20143;-74
2023/07/23 00:06:43;;;;;;;10.68;7.15;;;;;;;;;;4994151;28;20053;-73
2023/07/23 00:09:10;;;;;;;14.00;8.20;;;;;;;;;;5012772;28;20468;-73
2023/07/23 00:11:37;;;;;;;12.40;7.28;;;;;;;;;;5011981;28;20139;-73
2023/07/23 00:14:03;;;;;;;10.45;6.70;;;;;;;;;;5011934;28;20483;-73
2023/07/23 00:16:29;;;;;;;12.10;6.72;;;;;;;;;;5011745;28;20026;-73
2023/07/23 00:18:55;;;;;;;12.70;7.75;;;;;;;;;;5011838;28;20034;-73
2023/07/23 00:21:21;;;;;;;16.23;7.63;;;;;;;;;;5012308;28;20022;-73
2023/07/23 00:23:47;;;;;;;10.38;5.85;;;;;;;;;;5011600;28;20030;-73
2023/07/23 00:26:13;;;;;;;9.70;6.20;;;;;;;;;;5011630;28;20035;-72
2023/07/23 00:28:39;;;;;;;12.73;6.57;;;;;;;;;;5011353;28;20110;-71
2023/07/23 00:31:05;;;;;;;12.68;7.20;;;;;;;;;;5011871;28;20029;-71
2023/07/23 00:33:31;;;;;;;11.52;7.88;;;;;;;;;;5011744;28;20392;-72
2023/07/23 00:35:57;;;;;;;12.95;6.28;;;;;;;;;;5011331;28;20044;-73
2023/07/23 00:38:24;;;;;;;10.82;5.70;;;;;;;;;;5011405;28;20841;-71
2023/07/23 00:40:50;;;;;;;11.45;7.25;;;;;;;;;;5011502;28;20045;-71
2023/07/23 00:43:16;;;;;;;15.10;9.65;;;;;;;;;;5011531;28;20043;-72
2023/07/23 00:45:42;;;;;;;12.57;7.35;;;;;;;;;;5011224;28;20026;-71
2023/07/23 00:48:08;;;;;;;10.25;6.60;;;;;;;;;;5011425;28;20081;-72
2023/07/23 00:50:34;;;;;;;12.98;8.32;;;;;;;;;;5010927;28;20538;-73
2023/07/23 00:53:01;;;;;;;10.88;7.15;;;;;;;;;;5011264;28;20116;-73
2023/07/23 00:55:27;;;;;;;14.13;7.60;;;;;;;;;;4993630;28;20068;-71
2023/07/23 00:57:53;;;;;;;10.43;6.63;;;;;;;;;;5011580;28;20026;-72
2023/07/23 01:00:19;;;;;;;8.77;5.82;;;;;;;;;;5011189;28;20045;-71
2023/07/23 01:02:45;;;;;;;12.05;6.25;;;;;;;;;;5011155;28;20112;-72
2023/07/23 01:05:11;;;;;;;8.50;5.20;;;;;;;;;;5011410;28;20189;-71
2023/07/23 01:07:37;;;;;;;11.75;5.32;;;;;;;;;;5011362;28;20076;-71
2023/07/23 01:10:04;;;;;;;10.65;7.18;;;;;;;;;;5010785;28;20049;-73
2023/07/23 01:12:30;;;;;;;10.52;6.68;;;;;;;;;;5011041;28;20026;-71
2023/07/23 01:14:57;;;;;;;8.85;5.05;;;;;;;;;;5010593;28;20033;-70
2023/07/23 01:17:24;;;;;;;10.32;6.95;;;;;;;;;;5010949;28;20021;-73
2023/07/23 01:20:01;;;;;;;10.30;6.88;;;;;;;;;;5010427;28;20044;-72
2023/07/23 01:22:27;;;;;;;8.68;6.05;;;;;;;;;;4992895;28;20403;-70
2023/07/23 01:24:53;;;;;;;11.60;6.82;;;;;;;;;;5010786;28;20029;-72
2023/07/23 01:27:20;;;;;;;10.80;6.68;;;;;;;;;;5010584;28;20034;-71
2023/07/23 01:29:45;;;;;;;7.70;4.95;;;;;;;;;;5010540;28;20030;-72
2023/07/23 01:32:11;;;;;;;12.48;6.70;;;;;;;;;;4992525;28;20069;-73
2023/07/23 01:34:38;;;;;;;13.80;7.40;;;;;;;;;;5010090;28;20373;-74
2023/07/23 01:37:04;;;;;;;12.23;8.45;;;;;;;;;;5010500;28;20033;-74
2023/07/23 01:39:33;;;;;;;11.77;7.35;;;;;;;;;;5010343;28;20035;-73
2023/07/23 01:41:59;;;;;;;10.60;6.70;;;;;;;;;;5010331;28;20018;-73
2023/07/23 01:44:25;;;;;;;12.57;7.50;;;;;;;;;;5010468;28;20045;-72
2023/07/23 01:46:51;;;;;;;12.93;8.52;;;;;;;;;;5010089;28;20462;-72
2023/07/23 01:49:17;;;;;;;12.77;8.73;;;;;;;;;;5010122;28;20392;-73
2023/07/23 01:51:43;;;;;;;8.23;5.43;;;;;;;;;;5009956;28;20048;-72
2023/07/23 01:54:09;;;;;;;7.88;5.32;;;;;;;;;;5010155;28;20468;-72
2023/07/23 01:56:35;;;;;;;13.77;9.38;;;;;;;;;;5010099;28;20380;-73
2023/07/23 01:59:01;;;;;;;9.30;5.97;;;;;;;;;;5009882;28;20044;-70
2023/07/23 02:01:29;;;;;;;11.80;7.55;;;;;;;;;;5010315;28;20121;-71
2023/07/23 02:03:55;;;;;;;11.10;7.03;;;;;;;;;;5010140;28;20479;-71
2023/07/23 02:06:21;;;;;;;12.75;8.77;;;;;;;;;;5009697;28;20116;-70
2023/07/23 02:08:47;;;;;;;11.77;7.97;;;;;;;;;;5009980;28;20061;-73
2023/07/23 02:11:13;;;;;;;11.85;6.85;;;;;;;;;;5009441;28;20084;-70
2023/07/23 02:13:39;;;;;;;8.30;4.60;;;;;;;;;;5009303;28;20026;-68
2023/07/23 02:16:05;;;;;;;8.13;4.93;;;;;;;;;;4992084;28;20030;-71
2023/07/23 02:18:33;;;;;;;14.68;9.70;;;;;;;;;;5009684;28;20079;-71
2023/07/23 02:20:59;;;;;;;12.80;7.95;;;;;;;;;;5009516;28;20045;-70
2023/07/23 02:23:25;;;;;;;12.55;6.95;;;;;;;;;;5009654;28;20029;-72
2023/07/23 02:25:51;;;;;;;11.52;6.95;;;;;;;;;;5009643;28;20037;-72
2023/07/23 02:28:17;;;;;;;13.23;8.43;;;;;;;;;;5009485;28;20226;-72
2023/07/23 02:30:43;;;;;;;13.43;7.40;;;;;;;;;;5009537;28;20041;-73
2023/07/23 02:33:09;;;;;;;9.90;6.13;;;;;;;;;;5009634;28;20038;-74
2023/07/23 02:35:38;;;;;;;14.52;8.25;;;;;;;;;;5009288;28;20133;-71
2023/07/23 02:38:04;;;;;;;8.00;5.43;;;;;;;;;;5008803;28;20025;-70
2023/07/23 02:40:32;;;;;;;11.48;6.57;;;;;;;;;;5009392;28;20033;-71
2023/07/23 02:42:58;;;;;;;9.43;6.00;;;;;;;;;;5009360;28;20095;-72
2023/07/23 02:45:24;;;;;;;12.10;5.78;;;;;;;;;;5008589;28;20033;-73
2023/07/23 02:47:50;;;;;;;13.02;6.78;;;;;;;;;;5009309;28;20057;-71
2023/07/23 02:50:16;;;;;;;17.33;8.05;;;;;;;;;;5008640;28;20034;-72
2023/07/23 02:52:42;;;;;;;11.52;7.32;;;;;;;;;;5009373;28;20041;-70
2023/07/23 02:55:08;;;;;;;9.18;5.38;;;;;;;;;;5009344;28;20396;-70
2023/07/23 02:57:34;;;;;;;9.88;5.68;;;;;;;;;;5009265;28;20061;-70
2023/07/23 03:00:01;;;;;;;9.70;4.75;;;;;;;;;;5008941;28;20100;-72
2023/07/23 03:02:27;;;;;;;12.02;5.10;;;;;;;;;;5008728;28;20091;-71
2023/07/23 03:04:53;;;;;;;10.32;6.25;;;;;;;;;;5009081;28;20116;-73
2023/07/23 03:07:20;;;;;;;10.00;5.43;;;;;;;;;;5009963;28;20026;-72
2023/07/23 03:09:46;;;;;;;11.52;6.18;;;;;;;;;;5010031;28;20053;-73
2023/07/23 03:12:12;;;;;;;9.73;5.43;;;;;;;;;;5009643;28;20065;-71
2023/07/23 03:14:38;;;;;;;9.55;5.05;;;;;;;;;;5010187;28;20050;-72
2023/07/23 03:17:04;;;;;;;8.63;4.80;;;;;;;;;;5009557;28;20022;-72
2023/07/23 03:19:30;;;;;;;10.93;6.35;;;;;;;;;;5009900;28;20038;-73
2023/07/23 03:21:56;;;;;;;8.48;5.72;;;;;;;;;;5009527;28;20026;-71
2023/07/23 03:24:22;;;;;;;6.93;4.53;;;;;;;;;;5009711;28;20057;-72
2023/07/23 03:26:49;;;;;;;11.98;6.95;;;;;;;;;;4992296;28;20491;-73
2023/07/23 03:29:15;;;;;;;12.90;6.18;;;;;;;;;;5009760;28;20022;-71
2023/07/23 03:31:41;;;;;;;9.65;6.72;;;;;;;;;;5009717;28;20034;-73
2023/07/23 03:34:07;;;;;;;11.50;7.07;;;;;;;;;;5009959;28;20392;-72
2023/07/23 03:36:33;;;;;;;12.63;6.82;;;;;;;;;;5010063;28;20041;-73
2023/07/23 03:38:59;;;;;;;11.18;6.30;;;;;;;;;;5009675;28;20074;-73
2023/07/23 03:41:25;;;;;;;11.57;6.35;;;;;;;;;;5009610;28;20113;-73
2023/07/23 03:43:51;;;;;;;11.60;6.78;;;;;;;;;;5009665;28;20045;-72
2023/07/23 03:46:17;;;;;;;9.13;5.10;;;;;;;;;;5009349;28;20030;-73
2023/07/23 03:48:43;;;;;;;9.57;5.38;;;;;;;;;;5009345;28;20472;-72
2023/07/23 03:51:09;;;;;;;8.40;6.22;;;;;;;;;;5009468;28;20094;-73
2023/07/23 03:53:35;;;;;;;11.30;6.40;;;;;;;;;;5010280;28;20025;-72
2023/07/23 03:56:01;;;;;;;10.90;6.97;;;;;;;;;;5010992;28;20109;-72
2023/07/23 03:58:27;;;;;;;11.50;6.97;;;;;;;;;;5013348;28;20049;-74
2023/07/23 04:00:53;;;;;;;11.57;7.25;;;;;;;;;;5013127;28;20135;-73
2023/07/23 04:03:19;;;;;;;9.48;6.35;;;;;;;;;;5012726;28;20141;-73
2023/07/23 04:05:45;;;;;;;9.85;6.40;;;;;;;;;;5013321;28;20026;-73
2023/07/23 04:08:11;;;;;;;10.63;6.93;;;;;;;;;;5012925;28;20026;-73
2023/07/23 04:10:37;;;;;;;13.65;8.50;;;;;;;;;;5012541;28;20014;-74
2023/07/23 04:13:03;;;;;;;11.15;7.07;;;;;;;;;;5013013;28;20030;-73
2023/07/23 04:15:31;;;;;;;12.13;7.68;;;;;;;;;;5013226;28;20026;-74
2023/07/23 04:17:57;;;;;;;13.13;7.13;;;;;;;;;;5012780;28;20400;-73
2023/07/23 04:20:23;;;;;;;10.13;6.38;;;;;;;;;;5012637;28;20038;-74
2023/07/23 04:22:49;;;;;;;13.13;5.78;;;;;;;;;;5012355;28;20121;-74
2023/07/23 04:25:15;;;;;;;9.38;6.55;;;;;;;;;;5012624;28;20112;-74
2023/07/23 04:27:41;;;;;;;14.80;6.15;;;;;;;;;;5013351;28;20378;-74
2023/07/23 04:30:07;;;;;;;8.75;5.88;;;;;;;;;;5012749;28;20036;-74
2023/07/23 04:32:33;;;;;;;9.80;5.43;;;;;;;;;;5012699;28;20058;-75
2023/07/23 04:34:59;;;;;;;11.02;5.72;;;;;;;;;;5012762;28;20080;-74
2023/07/23 04:37:25;;;;;;;8.27;5.60;;;;;;;;;;5012645;28;20121;-74
2023/07/23 04:39:52;;;;;;;11.60;5.97;;;;;;;;;;5012154;28;20030;-74
2023/07/23 04:42:18;;;;;;;9.35;5.55;;;;;;;;;;5012460;28;20026;-74
2023/07/23 04:44:44;;;;;;;7.78;5.10;;;;;;;;;;5012650;28;20113;-73
2023/07/23 04:47:10;;;;;;;8.98;5.00;;;;;;;;;;5012229;28;20076;-74
2023/07/23 04:49:36;;;;;;;10.10;6.22;;;;;;;;;;5012009;28;20484;-74
2023/07/23 04:52:02;;;;;;;8.82;5.55;;;;;;;;;;5012474;28;20400;-75
2023/07/23 04:54:28;;;;;;;10.00;5.47;;;;;;;;;;5012793;28;20033;-76
2023/07/23 04:56:54;;;;;;;9.48;5.13;;;;;;;;;;5012420;28;20072;-76
2023/07/23 04:59:20;;;;;;;9.43;5.45;;;;;;;;;;5012006;28;20041;-76
2023/07/23 05:01:46;;;;;;;10.90;6.03;;;;;;;;;;5012007;28;20396;-76
2023/07/23 05:04:12;;;;;;;8.48;4.75;;;;;;;;;;5012244;28;20085;-75
2023/07/23 05:06:38;;;;;;;8.32;4.97;;;;;;;;;;5011926;28;20037;-76
2023/07/23 05:09:04;;;;;;;8.43;4.68;;;;;;;;;;5011304;28;20101;-75
2023/07/23 05:11:30;;;;;;;9.48;5.18;;;;;;;;;;4994543;28;20061;-75
2023/07/23 05:13:56;;;;;;;9.35;5.88;;;;;;;;;;4994596;28;20022;-74
2023/07/23 05:16:22;;;;;;;10.18;5.55;;;;;;;;;;4994928;28;20495;-74
2023/07/23 05:18:48;;;;;;;9.35;6.10;;;;;;;;;;5012244;28;20033;-74
2023/07/23 05:21:14;;;;;;;10.05;5.60;;;;;;;;;;5012566;28;20022;-74
2023/07/23 05:23:41;;;;;;;10.80;5.63;;;;;;;;;;5011555;28;20025;-74
2023/07/23 05:26:07;;;;;;;8.13;5.05;;;;;;;;;;5011771;28;20030;-73
2023/07/23 05:28:33;;;;;;;12.73;5.47;;;;;;;;;;5011825;28;20033;-74
2023/07/23 05:31:00;;;;;;;7.18;4.43;;;;;;;;;;5011418;28;20029;-74
2023/07/23 05:33:26;;;;;;;11.07;4.57;;;;;;;;;;5011650;28;20100;-74
2023/07/23 05:35:52;;;;;;;7.47;4.50;;;;;;;;;;5011138;28;20026;-77
2023/07/23 05:38:18;;;;;;;9.75;5.93;;;;;;;;;;5011558;28;20116;-74
2023/07/23 05:40:52;;;;;;;8.90;5.25;;;;;;;;;;5011327;28;20038;-75
2023/07/23 05:43:18;;;;;;;11.18;6.72;;;;;;;;;;5010687;28;20108;-73
2023/07/23 05:45:44;;;;;;;9.88;5.03;;;;;;;;;;5010214;28;20062;-76
2023/07/23 05:48:10;;;;;;;12.32;5.03;;;;;;;;;;5009655;28;20085;-73
2023/07/23 05:50:36;;;;;;;9.10;5.40;;;;;;;;;;4992555;28;20065;-76
2023/07/23 05:53:03;;;;;;;11.15;4.45;;;;;;;;;;5010490;28;20157;-75
2023/07/23 05:55:29;;;;;;;12.30;5.22;;;;;;;;;;5010041;28;20033;-74
2023/07/23 05:57:55;;;;;;;13.35;4.75;;;;;;;;;;5010247;28;20033;-74
2023/07/23 06:00:21;;;;;;;13.25;5.22;;;;;;;;;;5010648;28;20116;-73
2023/07/23 06:02:47;;;;;;;11.40;5.15;;;;;;;;;;5010551;28;20032;-75
2023/07/23 06:05:13;;;;;;;9.00;5.05;;;;;;;;;;5010615;28;20022;-75
2023/07/23 06:07:42;;;;;;;8.77;4.90;;;;;;;;;;5010218;28;20411;-76
2023/07/23 06:10:08;;;;;;;9.88;4.80;;;;;;;;;;5010523;28;20437;-75
2023/07/23 06:12:34;;;;;;;8.38;5.38;;;;;;;;;;5011061;28;20030;-75
2023/07/23 06:15:00;;;;;;;9.55;4.97;;;;;;;;;;5011142;28;20018;-73
2023/07/23 06:17:26;;;;;;;12.68;5.00;;;;;;;;;;5011442;28;20030;-76
2023/07/23 06:19:52;;;;;;;13.63;4.97;;;;;;;;;;5011093;28;20049;-76
2023/07/23 06:22:18;;;;;;;8.48;4.60;;;;;;;;;;5010945;28;20026;-77
2023/07/23 06:24:44;;;;;;;10.52;5.82;;;;;;;;;;5010942;28;20029;-76
2023/07/23 06:27:10;;;;;;;8.27;4.97;;;;;;;;;;4993229;28;20048;-77
2023/07/23 06:29:36;;;;;;;8.90;4.47;;;;;;;;;;4992854;28;20472;-76
2023/07/23 06:32:02;;;;;;;9.20;5.25;;;;;;;;;;5010053;28;20034;-78
2023/07/23 06:34:29;;;;;;;8.48;5.28;;;;;;;;;;5010700;28;20100;-76
2023/07/23 06:36:55;;;;;;;10.63;6.47;;;;;;;;;;5010600;28;20109;-75
2023/07/23 06:39:21;;;;;;;10.80;4.25;;;;;;;;;;5011257;28;20034;-77
2023/07/23 06:41:47;;;;;;;8.25;4.35;;;;;;;;;;5012301;28;20030;-76
2023/07/23 06:44:13;;;;;;;8.30;4.18;;;;;;;;;;4996870;28;20026;-75
2023/07/23 06:46:39;;;;;;;10.77;5.22;;;;;;;;;;5014920;28;20021;-76
2023/07/23 06:49:05;;;;;;;9.40;4.93;;;;;;;;;;5009839;28;20030;-75
2023/07/23 06:51:31;;;;;;;8.57;5.00;;;;;;;;;;5008691;28;20029;-77
2023/07/23 06:53:57;;;;;;;7.72;4.57;;;;;;;;;;5007898;28;20033;-77
2023/07/23 06:56:23;;;;;;;10.73;4.95;;;;;;;;;;4990520;28;20051;-75
2023/07/23 06:58:49;;;;;;;9.18;4.72;;;;;;;;;;5010039;28;20483;-74
2023/07/23 07:01:15;;;;;;;9.55;5.43;;;;;;;;;;5010220;28;20064;-76
2023/07/23 07:03:42;;;;;;;10.25;5.30;;;;;;;;;;5010153;28;20033;-76
2023/07/23 07:06:08;;;;;;;7.75;4.65;;;;;;;;;;5009963;28;20076;-74
2023/07/23 07:08:33;;;;;;;9.18;5.03;;;;;;;;;;5010083;28;20029;-76
2023/07/23 07:11:00;;;;;;;7.28;4.13;;;;;;;;;;4992715;28;20030;-77
2023/07/23 07:13:30;;;;;;;7.22;4.43;;;;;;;;;;5009569;28;20053;-74
2023/07/23 07:15:56;;;;;;;10.83;5.77;;;;;;;;;;5010455;28;20109;-77
2023/07/23 07:18:22;;;;;;;8.40;4.18;;;;;;;;;;5009989;28;20080;-75
2023/07/23 07:20:58;;;;;;;10.25;4.85;;;;;;;;;;5009853;28;20042;-77
2023/07/23 07:23:25;;;;;;;10.25;5.35;;;;;;;;;;5010022;28;20065;-77
2023/07/23 07:25:51;;;;;;;9.98;5.65;;;;;;;;;;5009875;28;20018;-74
2023/07/23 07:28:17;;;;;;;12.90;5.68;;;;;;;;;;5009554;28;20113;-75
2023/07/23 07:30:43;;;;;;;10.18;5.85;;;;;;;;;;5012516;28;20070;-79
2023/07/23 07:33:09;;;;;;;8.73;5.18;;;;;;;;;;5015289;28;20076;-75
2023/07/23 07:35:35;;;;;;;11.65;6.07;;;;;;;;;;5015000;28;20469;-77
2023/07/23 07:38:02;;;;;;;8.23;4.53;;;;;;;;;;5012998;28;20026;-76
2023/07/23 07:40:28;;;;;;;11.15;6.15;;;;;;;;;;5013596;28;20111;-76
2023/07/23 07:42:54;;;;;;;9.73;5.82;;;;;;;;;;5012929;28;20057;-76
2023/07/23 07:45:20;;;;;;;11.73;6.85;;;;;;;;;;5012953;28;20034;-75
2023/07/23 07:47:46;;;;;;;10.80;6.18;;;;;;;;;;5012775;28;20120;-76
2023/07/23 07:50:12;;;;;;;7.68;4.95;;;;;;;;;;5012427;28;20037;-76
2023/07/23 07:52:38;;;;;;;8.02;4.32;;;;;;;;;;5012334;28;20108;-74
2023/07/23 07:55:04;;;;;;;10.80;5.20;;;;;;;;;;5013564;28;20030;-77
2023/07/23 07:57:30;;;;;;;14.25;6.25;;;;;;;;;;5013674;28;20018;-75
2023/07/23 07:59:56;;;;;;;9.40;6.35;;;;;;;;;;5013123;28;20541;-73
2023/07/23 08:02:22;;;;;;;9.82;5.50;;;;;;;;;;5013387;28;20030;-75
2023/07/23 08:04:49;;;;;;;12.05;6.88;;;;;;;;;;5013516;28;20029;-75
2023/07/23 08:07:15;;;;;;;13.50;6.47;;;;;;;;;;5013114;28;20046;-75
2023/07/23 08:09:42;;;;;;;11.90;8.15;;;;;;;;;;5012888;28;20097;-71
2023/07/23 08:12:09;;;;;;;10.95;5.70;;;;;;;;;;5012811;28;20526;-71
2023/07/23 08:14:38;;;;;;;11.93;7.40;;;;;;;;;;5012904;28;20056;-73
2023/07/23 08:17:04;;;;;;;12.05;7.30;;;;;;;;;;5013085;28;20026;-74
2023/07/23 08:19:30;;;;;;;8.25;5.45;;;;;;;;;;5012774;28;20050;-75
2023/07/23 08:21:57;;;;;;;11.07;7.35;;;;;;;;;;4995089;28;20030;-73
2023/07/23 08:24:23;;;;;;;14.43;8.23;;;;;;;;;;5012961;28;20053;-71
2023/07/23 08:26:50;;;;;;;11.45;6.75;;;;;;;;;;5013128;28;20018;-77
2023/07/23 08:29:18;;;;;;;14.63;8.15;;;;;;;;;;5012718;28;20040;-72
2023/07/23 08:31:44;;;;;;;12.25;7.90;;;;;;;;;;5013205;28;20034;-73
2023/07/23 08:34:10;;;;;;;12.13;7.30;;;;;;;;;;5012597;28;20018;-73
2023/07/23 08:36:36;;;;;;;12.55;7.88;;;;;;;;;;5013461;28;20026;-76
2023/07/23 08:39:04;;;;;;;14.85;6.80;;;;;;;;;;5012812;28;20022;-74
2023/07/23 08:41:43;;;;;;;11.90;7.90;;;;;;;;;;5012789;28;20052;-74
2023/07/23 08:44:28;;;;;;;11.18;7.22;;;;;;;;;;5011775;28;20061;-73
2023/07/23 08:47:02;;;;;;;11.93;7.57;;;;;;;;;;5012210;28;20385;-70
2023/07/23 08:49:29;;;;;;;10.48;6.68;;;;;;;;;;5012528;28;20037;-71
2023/07/23 08:51:55;;;;;;;10.40;6.35;;;;;;;;;;4995031;28;20064;-71
2023/07/23 08:54:21;;;;;;;11.52;7.75;;;;;;;;;;5013190;28;20053;-75
2023/07/23 08:56:48;;;;;;;10.38;6.63;;;;;;;;;;5012106;28;20026;-71
2023/07/23 08:59:14;;;;;;;10.02;6.03;;;;;;;;;;5012242;28;20036;-78
2023/07/23 09:01:40;;;;;;;10.30;5.68;;;;;;;;;;5012362;28;20030;-78
2023/07/23 09:04:08;;;;;;;10.90;5.80;;;;;;;;;;5012185;28;20022;-75
2023/07/23 09:06:34;;;;;;;10.60;6.82;;;;;;;;;;4994456;28;20026;-75
2023/07/23 09:09:01;;;;;;;10.40;6.88;;;;;;;;;;5012054;28;20253;-75
2023/07/23 09:11:28;;;;;;;10.25;7.18;;;;;;;;;;4994567;28;20060;-73
2023/07/23 09:13:57;;;;;;;10.80;6.10;;;;;;;;;;5012664;28;20480;-76
2023/07/23 09:16:26;;;;;;;15.73;6.45;;;;;;;;;;5011880;28;20491;-76
2023/07/23 09:18:52;;;;;;;13.45;6.03;;;;;;;;;;5012606;28;20026;-78
2023/07/23 09:21:25;;;;;;;10.77;6.28;;;;;;;;;;5011946;28;20061;-78
2023/07/23 09:23:54;;;;;;;11.35;7.13;;;;;;;;;;5012437;28;20026;-77
2023/07/23 09:26:22;;;;;;;10.67;6.37;;;;;;;;;;5012187;28;20033;-76
2023/07/23 09:28:50;;;;;;;9.68;5.53;;;;;;;;;;5011150;28;20303;-72
2023/07/23 09:31:21;;;;;;;9.65;4.88;;;;;;;;;;5011682;28;20129;-77
2023/07/23 09:33:47;;;;;;;7.25;4.95;;;;;;;;;;5011340;28;20061;-75
2023/07/23 09:36:13;;;;;;;6.75;3.65;;;;;;;;;;5011490;28;20076;-74
2023/07/23 09:38:45;;;;;;;7.32;4.60;;;;;;;;;;5011416;28;20377;-74
2023/07/23 09:41:11;;;;;;;8.57;4.53;;;;;;;;;;4993357;28;20128;-76
2023/07/23 09:43:39;;;;;;;6.95;4.05;;;;;;;;;;5011244;28;20026;-75
2023/07/23 09:46:07;;;;;;;8.23;4.45;;;;;;;;;;5011344;28;20472;-76
2023/07/23 09:48:33;;;;;;;5.90;3.63;;;;;;;;;;5010730;28;20525;-76
2023/07/23 09:51:01;;;;;;;8.00;3.55;;;;;;;;;;5010801;28;20361;-73
2023/07/23 09:53:29;;;;;;;7.13;4.22;;;;;;;;;;5010722;28;20030;-74
2023/07/23 09:55:56;;;;;;;6.40;4.18;;;;;;;;;;5011797;28;20026;-74
2023/07/23 09:58:23;;;;;;;7.72;4.32;;;;;;;;;;5010963;28;20026;-78
2023/07/23 10:00:50;;;;;;;8.00;4.63;;;;;;;;;;5011197;28;20034;-77
2023/07/23 10:03:17;;;;;;;5.78;3.58;;;;;;;;;;5011657;28;20343;-74
2023/07/23 10:05:43;;;;;;;6.10;3.47;;;;;;;;;;5011165;28;20049;-74
2023/07/23 10:08:10;;;;;;;5.78;3.20;;;;;;;;;;5010553;28;20448;-73
2023/07/23 10:10:36;;;;;;;7.00;3.85;;;;;;;;;;5010592;28;20515;-73
2023/07/23 10:13:02;;;;;;;6.05;3.50;;;;;;;;;;5010402;28;20129;-74
2023/07/23 10:15:29;;;;;;;6.97;3.45;;;;;;;;;;5010953;28;20109;-73
2023/07/23 10:18:00;;;;;;;5.18;2.47;;;;;;;;;;5010803;28;20021;-72
2023/07/23 10:20:27;;;;;;;5.22;3.00;;;;;;;;;;5011083;28;20049;-72
2023/07/23 10:22:53;;;;;;;7.60;3.65;;;;;;;;;;5010982;28;20026;-73
2023/07/23 10:25:33;;;;;;;5.45;3.13;;;;;;;;;;5010428;28;20064;-73
2023/07/23 10:28:02;;;;;;;4.85;2.95;;;;;;;;;;5010581;28;20075;-73
2023/07/23 10:30:32;;;;;;;5.20;3.45;;;;;;;;;;5010227;28;20101;-75
2023/07/23 10:33:11;;;;;;;6.47;3.63;;;;;;;;;;5010416;28;20170;-73
2023/07/23 10:35:52;;;;;;;7.35;3.55;;;;;;;;;;5010549;28;20569;-78
2023/07/23 10:38:22;;;;;;;5.82;3.03;;;;;;;;;;5010070;28;20500;-76
2023/07/23 10:40:49;;;;;;;5.28;3.30;;;;;;;;;;5010553;28;20045;-75
2023/07/23 10:43:15;;;;;;;6.65;3.15;;;;;;;;;;4993133;28;20061;-74
2023/07/23 10:46:05;;;;;;;5.57;2.95;;;;;;;;;;5011097;28;20113;-75
2023/07/23 10:48:41;;;;;;;7.00;4.00;;;;;;;;;;4992671;28;20054;-75
2023/07/23 10:51:08;;;;;;;4.03;2.40;;;;;;;;;;5010661;28;20041;-74
2023/07/23 10:53:37;;;;;;;4.00;2.38;;;;;;;;;;5010225;28;20018;-75
2023/07/23 10:56:04;;;;;;;4.60;2.60;;;;;;;;;;5010457;28;20018;-73
2023/07/23 10:58:30;;;;;;;4.80;2.67;;;;;;;;;;5009998;28;20429;-75
2023/07/23 11:00:57;;;;;;;5.18;2.83;;;;;;;;;;5009938;28;20549;-74
2023/07/23 11:03:24;;;;;;;4.43;2.42;;;;;;;;;;5010609;28;20128;-73
2023/07/23 11:05:52;;;;;;;5.43;3.33;;;;;;;;;;5010449;28;20038;-76
2023/07/23 11:08:26;;;;;;;6.57;3.17;;;;;;;;;;5012517;28;20373;-75
2023/07/23 11:10:59;;;;;;;6.15;3.53;;;;;;;;;;5010099;28;20051;-76
2023/07/23 11:13:26;;;;;;;4.45;2.30;;;;;;;;;;4992398;28;20037;-75
2023/07/23 11:15:52;;;;;;;5.28;3.20;;;;;;;;;;5010085;28;20104;-78
2023/07/23 11:18:19;;;;;;;6.13;3.45;;;;;;;;;;5009889;28;20502;-76
2023/07/23 11:20:49;;;;;;;6.72;4.20;;;;;;;;;;5009884;28;20755;-74
2023/07/23 11:23:16;;;;;;;5.85;3.83;;;;;;;;;;5010285;28;20060;-74
2023/07/23 11:25:43;;;;;;;6.65;4.32;;;;;;;;;;5010608;28;20033;-76
2023/07/23 11:28:09;;;;;;;7.43;4.15;;;;;;;;;;5009904;28;20200;-74
2023/07/23 11:30:35;;;;;;;7.30;4.43;;;;;;;;;;5009879;28;20025;-73
2023/07/23 11:33:04;;;;;;;7.43;4.45;;;;;;;;;;5009962;28;20118;-73
2023/07/23 11:35:31;;;;;;;5.07;2.92;;;;;;;;;;5010010;28;20018;-74
2023/07/23 11:38:03;;;;;;;7.68;4.75;;;;;;;;;;5009998;28;20026;-74
2023/07/23 11:40:30;;;;;;;7.68;4.80;;;;;;;;;;5009869;28;20680;-74
2023/07/23 11:42:56;;;;;;;6.78;3.95;;;;;;;;;;5009680;28;20388;-75
2023/07/23 11:45:22;;;;;;;8.65;3.83;;;;;;;;;;5010238;28;20117;-74
2023/07/23 11:47:55;;;;;;;6.60;4.60;;;;;;;;;;5009941;28;20100;-75
2023/07/23 11:50:21;;;;;;;6.97;4.28;;;;;;;;;;5010034;28;20031;-75
2023/07/23 11:52:48;;;;;;;7.65;5.50;;;;;;;;;;5010161;28;20065;-74
2023/07/23 11:55:24;;;;;;;8.30;5.65;;;;;;;;;;5010169;28;20244;-74
2023/07/23 11:57:59;;;;;;;7.75;5.28;;;;;;;;;;5010105;28;20029;-75
2023/07/23 12:00:39;;;;;;;10.02;6.35;;;;;;;;;;5009917;28;20034;-75
2023/07/23 12:03:09;;;;;;;6.90;5.25;;;;;;;;;;5009438;28;20097;-74
2023/07/23 12:05:39;;;;;;;8.52;6.05;;;;;;;;;;5009836;28;20561;-75
2023/07/23 12:08:05;;;;;;;8.73;5.83;;;;;;;;;;5010152;28;20156;-76
2023/07/23 12:10:32;;;;;;;7.75;4.93;;;;;;;;;;5009687;28;20261;-74
2023/07/23 12:13:06;;;;;;;7.65;5.35;;;;;;;;;;5009777;28;20022;-74
2023/07/23 12:15:32;;;;;;;9.20;5.50;;;;;;;;;;5010289;28;20029;-73
2023/07/23 12:17:59;;;;;;;8.77;5.90;;;;;;;;;;5011716;28;20164;-74
2023/07/23 12:20:25;;;;;;;7.15;5.10;;;;;;;;;;5013078;28;20037;-75
2023/07/23 12:22:56;;;;;;;6.18;3.63;;;;;;;;;;5013376;28;20028;-77
2023/07/23 12:25:23;;;;;;;6.97;4.10;;;;;;;;;;5013073;28;20100;-75
2023/07/23 12:27:50;;;;;;;7.15;5.28;;;;;;;;;;5012369;28;20026;-76
2023/07/23 12:30:17;;;;;;;8.18;5.25;;;;;;;;;;5012030;28;20128;-75
2023/07/23 12:32:44;;;;;;;6.40;3.08;;;;;;;;;;5010775;28;20037;-75
2023/07/23 12:35:10;;;;;;;5.65;4.03;;;;;;;;;;5009795;28;20064;-75
2023/07/23 12:37:36;;;;;;;6.75;5.00;;;;;;;;;;5010769;28;20018;-74
2023/07/23 12:40:06;;;;;;;6.35;4.38;;;;;;;;;;5010247;28;20065;-74
2023/07/23 12:42:34;;;;;;;7.35;4.75;;;;;;;;;;5010848;28;20026;-73
2023/07/23 12:45:03;;;;;;;6.10;4.10;;;;;;;;;;5010585;28;20030;-74
2023/07/23 12:47:30;;;;;;;9.90;4.95;;;;;;;;;;5011904;28;20042;-74
2023/07/23 12:49:58;;;;;;;7.28;4.50;;;;;;;;;;5012139;28;20030;-73
2023/07/23 12:52:24;;;;;;;7.53;5.65;;;;;;;;;;5013052;28;20026;-74
2023/07/23 12:54:51;;;;;;;7.68;4.80;;;;;;;;;;5013000;28;20049;-73
2023/07/23 12:57:17;;;;;;;8.70;6.10;;;;;;;;;;5012836;28;20022;-75
2023/07/23 12:59:44;;;;;;;8.57;5.28;;;;;;;;;;4994572;28;20473;-72
2023/07/23 13:02:10;;;;;;;7.68;4.75;;;;;;;;;;5012829;28;20423;-73
2023/07/23 13:04:37;;;;;;;6.82;3.60;;;;;;;;;;5012244;28;20053;-74
2023/07/23 13:07:03;;;;;;;7.43;4.05;;;;;;;;;;5011938;28;20387;-72
2023/07/23 13:09:29;;;;;;;7.68;4.93;;;;;;;;;;5012473;28;20049;-72
2023/07/23 13:11:56;;;;;;;8.93;5.28;;;;;;;;;;5012233;28;20088;-74
2023/07/23 13:14:22;;;;;;;8.02;5.00;;;;;;;;;;4994521;28;20104;-74
2023/07/23 13:16:48;;;;;;;8.70;5.10;;;;;;;;;;5012038;28;20451;-73
2023/07/23 13:19:16;;;;;;;8.32;4.88;;;;;;;;;;5011586;28;20038;-72
2023/07/23 13:21:42;;;;;;;7.05;5.38;;;;;;;;;;5011785;28;20037;-73
2023/07/23 13:24:09;;;;;;;7.43;4.50;;;;;;;;;;5011919;28;20431;-73
2023/07/23 13:26:35;;;;;;;7.20;4.65;;;;;;;;;;5012487;28;20037;-76
2023/07/23 13:29:01;;;;;;;6.68;4.75;;;;;;;;;;5011156;28;20026;-73
2023/07/23 13:31:27;;;;;;;7.55;4.88;;;;;;;;;;5011371;28;20104;-73
2023/07/23 13:33:53;;;;;;;7.30;4.05;;;;;;;;;;5011837;28;20112;-74
2023/07/23 13:36:19;;;;;;;7.13;4.50;;;;;;;;;;5011115;28;20026;-74
2023/07/23 13:38:45;;;;;;;6.88;4.45;;;;;;;;;;5012206;28;20025;-73
2023/07/23 13:41:11;;;;;;;7.72;3.72;;;;;;;;;;4994230;28;20048;-72
2023/07/23 13:43:37;;;;;;;8.05;4.78;;;;;;;;;;5010741;28;20029;-73
2023/07/23 13:46:03;;;;;;;7.68;4.95;;;;;;;;;;5011210;28;20041;-74
2023/07/23 13:48:29;;;;;;;7.50;4.10;;;;;;;;;;5011211;28;20054;-73
2023/07/23 13:50:57;;;;;;;7.90;4.50;;;;;;;;;;5011588;28;20106;-73
2023/07/23 13:53:23;;;;;;;5.32;3.40;;;;;;;;;;5010889;28;20026;-72
2023/07/23 13:55:49;;;;;;;7.90;4.70;;;;;;;;;;5011134;28;20026;-73
2023/07/23 13:58:15;;;;;;;6.65;4.32;;;;;;;;;;5011136;28;20116;-73
2023/07/23 14:00:41;;;;;;;7.28;4.70;;;;;;;;;;5011335;28;20480;-74
2023/07/23 14:03:07;;;;;;;7.90;4.10;;;;;;;;;;5011066;28;20041;-73
2023/07/23 14:05:35;;;;;;;7.03;3.55;;;;;;;;;;5010937;28;20433;-74
2023/07/23 14:08:02;;;;;;;6.07;4.35;;;;;;;;;;5011233;28;20029;-75
2023/07/23 14:10:28;;;;;;;7.80;4.63;;;;;;;;;;5010970;28;20022;-74
2023/07/23 14:12:54;;;;;;;6.47;4.32;;;;;;;;;;5011532;28;20049;-73
2023/07/23 14:15:20;;;;;;;5.40;3.90;;;;;;;;;;5011387;28;20030;-76
2023/07/23 14:17:46;;;;;;;5.90;3.22;;;;;;;;;;5011746;28;20782;-77
2023/07/23 14:20:12;;;;;;;6.57;4.15;;;;;;;;;;5011549;28;20216;-73
2023/07/23 14:22:38;;;;;;;7.55;4.35;;;;;;;;;;5011404;28;20037;-73
2023/07/23 14:25:05;;;;;;;7.15;3.45;;;;;;;;;;5011343;28;20025;-72
2023/07/23 14:27:31;;;;;;;7.90;4.50;;;;;;;;;;5011137;28;20041;-73
2023/07/23 14:29:57;;;;;;;8.55;4.82;;;;;;;;;;5010555;28;20036;-74
2023/07/23 14:32:23;;;;;;;6.97;4.95;;;;;;;;;;5010484;28;20039;-74
2023/07/23 14:34:52;;;;;;;6.25;3.80;;;;;;;;;;5010984;28;20037;-74
2023/07/23 14:37:18;;;;;;;7.32;4.05;;;;;;;;;;5010295;28;20018;-75